sensor_id;sensor_type;location;lat;lon;timestamp;P1;durP1;ratioP1;P2;durP2;ratioP2
22219;SDS011;11279;48.364;10.904;2024-03-23T00:51:27;7.30;;;4.07;;
22219;SDS011;11279;48.364;10.904;2024-03-23T00:52:28;8.33;;;3.47;;
22219;SDS011;11279;48.364;10.904;2024-03-23T00:54:30;6.07;;;3.33;;
22219;SDS011;11279;48.364;10.904;2024-03-23T00:55:31;6.97;;;3.70;;
22219;SDS011;11279;48.364;10.904;2024-03-23T00:56:31;5.47;;;3.40;;
22219;SDS011;11279;48.364;10.904;2024-03-23T00:57:31;7.87;;;3.67;;
22219;SDS011;11279;48.364;10.904;2024-03-23T00:58:32;6.23;;;3.27;;
22219;SDS011;11279;48.364;10.904;2024-03-23T00:59:32;5.50;;;3.40;;
22219;SDS011;11279;48.364;10.904;2024-03-23T01:00:33;4.70;;;3.33;;
22219;SDS011;11279;48.364;10.904;2024-03-23T01:01:33;8.97;;;3.80;;
22219;SDS011;11279;48.364;10.904;2024-03-23T01:02:33;6.73;;;4.03;;
22219;SDS011;11279;48.364;10.904;2024-03-23T01:03:34;4.97;;;3.33;;
22219;SDS011;11279;48.364;10.904;2024-03-23T01:04:34;5.77;;;3.57;;
22219;SDS011;11279;48.364;10.904;2024-03-23T01:05:35;5.50;;;3.53;;
22219;SDS011;11279;48.364;10.904;2024-03-23T01:06:35;7.20;;;3.40;;
22219;SDS011;11279;48.364;10.904;2024-03-23T01:07:36;7.93;;;3.20;;
22219;SDS011;11279;48.364;10.904;2024-03-23T01:08:36;5.50;;;3.37;;
22219;SDS011;11279;48.364;10.904;2024-03-23T01:09:37;6.97;;;3.50;;
22219;SDS011;11279;48.364;10.904;2024-03-23T01:10:38;8.27;;;3.20;;
22219;SDS011;11279;48.364;10.904;2024-03-23T01:11:39;6.77;;;3.20;;
22219;SDS011;11279;48.364;10.904;2024-03-23T01:12:39;7.57;;;3.53;;
22219;SDS011;11279;48.364;10.904;2024-03-23T01:13:40;7.33;;;3.50;;
22219;SDS011;11279;48.364;10.904;2024-03-23T01:14:40;8.50;;;3.17;;
22219;SDS011;11279;48.364;10.904;2024-03-23T01:15:41;6.10;;;3.10;;
22219;SDS011;11279;48.364;10.904;2024-03-23T01:16:48;8.10;;;3.20;;
22219;SDS011;11279;48.364;10.904;2024-03-23T01:17:49;5.43;;;3.30;;
22219;SDS011;11279;48.364;10.904;2024-03-23T01:18:49;7.43;;;3.57;;
22219;SDS011;11279;48.364;10.904;2024-03-23T01:19:49;4.87;;;3.30;;
22219;SDS011;11279;48.364;10.904;2024-03-23T01:20:50;6.33;;;3.60;;
22219;SDS011;11279;48.364;10.904;2024-03-23T01:21:50;8.07;;;3.60;;
22219;SDS011;11279;48.364;10.904;2024-03-23T01:22:51;6.97;;;3.23;;
22219;SDS011;11279;48.364;10.904;2024-03-23T01:23:51;6.53;;;3.47;;
22219;SDS011;11279;48.364;10.904;2024-03-23T01:24:51;7.37;;;3.70;;
22219;SDS011;11279;48.364;10.904;2024-03-23T01:25:52;6.47;;;3.50;;
22219;SDS011;11279;48.364;10.904;2024-03-23T01:26:53;7.65;;;4.20;;
22219;SDS011;11279;48.364;10.904;2024-03-23T01:27:54;7.00;;;3.43;;
22219;SDS011;11279;48.364;10.904;2024-03-23T01:28:54;8.50;;;3.27;;
22219;SDS011;11279;48.364;10.904;2024-03-23T01:29:54;5.40;;;3.13;;
22219;SDS011;11279;48.364;10.904;2024-03-23T01:30:55;4.77;;;3.13;;
22219;SDS011;11279;48.364;10.904;2024-03-23T01:31:55;8.27;;;3.27;;
22219;SDS011;11279;48.364;10.904;2024-03-23T01:32:56;9.10;;;4.23;;
22219;SDS011;11279;48.364;10.904;2024-03-23T01:33:56;7.73;;;3.30;;
22219;SDS011;11279;48.364;10.904;2024-03-23T01:34:57;6.30;;;3.47;;
22219;SDS011;11279;48.364;10.904;2024-03-23T01:35:57;8.23;;;3.23;;
22219;SDS011;11279;48.364;10.904;2024-03-23T01:36:58;8.63;;;3.47;;
22219;SDS011;11279;48.364;10.904;2024-03-23T01:37:58;6.60;;;3.27;;
22219;SDS011;11279;48.364;10.904;2024-03-23T01:38:59;6.03;;;3.00;;
22219;SDS011;11279;48.364;10.904;2024-03-23T01:39:59;4.80;;;3.10;;
22219;SDS011;11279;48.364;10.904;2024-03-23T01:40:59;6.87;;;2.83;;
22219;SDS011;11279;48.364;10.904;2024-03-23T01:42:00;4.23;;;2.57;;
22219;SDS011;11279;48.364;10.904;2024-03-23T01:43:07;6.87;;;2.70;;
22219;SDS011;11279;48.364;10.904;2024-03-23T01:44:10;5.55;;;2.85;;
22219;SDS011;11279;48.364;10.904;2024-03-23T01:45:11;6.00;;;3.20;;
22219;SDS011;11279;48.364;10.904;2024-03-23T01:46:11;6.37;;;2.93;;
22219;SDS011;11279;48.364;10.904;2024-03-23T01:47:12;5.07;;;3.00;;
22219;SDS011;11279;48.364;10.904;2024-03-23T01:48:12;4.70;;;3.00;;
22219;SDS011;11279;48.364;10.904;2024-03-23T01:49:13;8.27;;;2.97;;
22219;SDS011;11279;48.364;10.904;2024-03-23T01:50:13;6.53;;;3.00;;
22219;SDS011;11279;48.364;10.904;2024-03-23T01:51:14;5.67;;;3.40;;
22219;SDS011;11279;48.364;10.904;2024-03-23T01:52:14;6.10;;;3.07;;
22219;SDS011;11279;48.364;10.904;2024-03-23T01:53:15;5.67;;;3.10;;
22219;SDS011;11279;48.364;10.904;2024-03-23T01:54:17;6.47;;;2.67;;
22219;SDS011;11279;48.364;10.904;2024-03-23T01:55:19;7.15;;;3.00;;
22219;SDS011;11279;48.364;10.904;2024-03-23T01:56:20;8.63;;;3.57;;
22219;SDS011;11279;48.364;10.904;2024-03-23T01:57:20;5.72;;;3.05;;
22219;SDS011;11279;48.364;10.904;2024-03-23T01:58:21;5.37;;;3.10;;
22219;SDS011;11279;48.364;10.904;2024-03-23T01:59:22;6.80;;;3.17;;
22219;SDS011;11279;48.364;10.904;2024-03-23T02:00:22;6.43;;;3.50;;
22219;SDS011;11279;48.364;10.904;2024-03-23T02:01:23;4.70;;;3.10;;
22219;SDS011;11279;48.364;10.904;2024-03-23T02:02:23;5.43;;;3.30;;
22219;SDS011;11279;48.364;10.904;2024-03-23T02:04:25;8.63;;;3.30;;
22219;SDS011;11279;48.364;10.904;2024-03-23T02:05:25;5.50;;;3.40;;
22219;SDS011;11279;48.364;10.904;2024-03-23T02:06:26;4.73;;;3.13;;
22219;SDS011;11279;48.364;10.904;2024-03-23T02:07:26;8.93;;;3.47;;
22219;SDS011;11279;48.364;10.904;2024-03-23T02:08:28;6.97;;;3.53;;
22219;SDS011;11279;48.364;10.904;2024-03-23T02:09:29;7.10;;;3.50;;
22219;SDS011;11279;48.364;10.904;2024-03-23T02:10:30;8.47;;;3.70;;
22219;SDS011;11279;48.364;10.904;2024-03-23T02:11:30;8.67;;;3.37;;
22219;SDS011;11279;48.364;10.904;2024-03-23T02:12:31;5.00;;;2.97;;
22219;SDS011;11279;48.364;10.904;2024-03-23T02:13:31;7.77;;;3.13;;
22219;SDS011;11279;48.364;10.904;2024-03-23T02:14:31;6.97;;;3.30;;
22219;SDS011;11279;48.364;10.904;2024-03-23T02:15:32;6.13;;;3.53;;
22219;SDS011;11279;48.364;10.904;2024-03-23T02:16:33;8.38;;;3.60;;
22219;SDS011;11279;48.364;10.904;2024-03-23T02:17:34;6.40;;;3.60;;
22219;SDS011;11279;48.364;10.904;2024-03-23T02:18:35;7.07;;;3.25;;
22219;SDS011;11279;48.364;10.904;2024-03-23T02:19:35;6.10;;;3.57;;
22219;SDS011;11279;48.364;10.904;2024-03-23T02:20:36;7.33;;;3.30;;
22219;SDS011;11279;48.364;10.904;2024-03-23T02:21:37;6.90;;;3.80;;
22219;SDS011;11279;48.364;10.904;2024-03-23T02:22:38;5.37;;;3.27;;
22219;SDS011;11279;48.364;10.904;2024-03-23T02:23:39;6.93;;;3.03;;
22219;SDS011;11279;48.364;10.904;2024-03-23T02:24:39;6.40;;;3.30;;
22219;SDS011;11279;48.364;10.904;2024-03-23T02:25:40;6.60;;;3.40;;
22219;SDS011;11279;48.364;10.904;2024-03-23T02:26:40;7.90;;;3.30;;
22219;SDS011;11279;48.364;10.904;2024-03-23T02:27:40;6.60;;;3.73;;
22219;SDS011;11279;48.364;10.904;2024-03-23T02:28:41;6.27;;;3.73;;
22219;SDS011;11279;48.364;10.904;2024-03-23T02:29:41;6.83;;;3.80;;
22219;SDS011;11279;48.364;10.904;2024-03-23T02:30:42;6.33;;;3.60;;
22219;SDS011;11279;48.364;10.904;2024-03-23T02:31:42;6.47;;;3.40;;
22219;SDS011;11279;48.364;10.904;2024-03-23T02:32:42;7.90;;;3.70;;
22219;SDS011;11279;48.364;10.904;2024-03-23T02:33:44;7.38;;;3.50;;
22219;SDS011;11279;48.364;10.904;2024-03-23T02:34:44;7.43;;;3.30;;
22219;SDS011;11279;48.364;10.904;2024-03-23T02:35:45;5.10;;;3.33;;
22219;SDS011;11279;48.364;10.904;2024-03-23T02:36:45;8.00;;;3.43;;
22219;SDS011;11279;48.364;10.904;2024-03-23T02:37:46;7.03;;;3.87;;
22219;SDS011;11279;48.364;10.904;2024-03-23T02:38:48;7.93;;;3.60;;
22219;SDS011;11279;48.364;10.904;2024-03-23T02:39:48;8.10;;;3.60;;
22219;SDS011;11279;48.364;10.904;2024-03-23T02:40:49;7.47;;;3.57;;
22219;SDS011;11279;48.364;10.904;2024-03-23T02:41:49;7.37;;;3.87;;
22219;SDS011;11279;48.364;10.904;2024-03-23T02:42:50;5.23;;;3.40;;
22219;SDS011;11279;48.364;10.904;2024-03-23T02:43:50;5.33;;;3.23;;
22219;SDS011;11279;48.364;10.904;2024-03-23T02:44:51;7.37;;;3.80;;
22219;SDS011;11279;48.364;10.904;2024-03-23T02:45:51;8.83;;;4.00;;
22219;SDS011;11279;48.364;10.904;2024-03-23T02:46:52;8.27;;;3.50;;
22219;SDS011;11279;48.364;10.904;2024-03-23T02:47:52;6.87;;;3.47;;
22219;SDS011;11279;48.364;10.904;2024-03-23T02:48:53;5.53;;;3.40;;
22219;SDS011;11279;48.364;10.904;2024-03-23T02:49:54;7.87;;;3.57;;
22219;SDS011;11279;48.364;10.904;2024-03-23T02:50:55;7.22;;;3.75;;
22219;SDS011;11279;48.364;10.904;2024-03-23T02:51:55;5.90;;;3.60;;
22219;SDS011;11279;48.364;10.904;2024-03-23T02:52:56;5.97;;;3.40;;
22219;SDS011;11279;48.364;10.904;2024-03-23T02:53:56;7.97;;;4.47;;
22219;SDS011;11279;48.364;10.904;2024-03-23T02:54:57;8.53;;;4.30;;
22219;SDS011;11279;48.364;10.904;2024-03-23T02:55:58;8.07;;;3.77;;
22219;SDS011;11279;48.364;10.904;2024-03-23T02:56:58;6.95;;;3.85;;
22219;SDS011;11279;48.364;10.904;2024-03-23T02:57:59;5.83;;;3.57;;
22219;SDS011;11279;48.364;10.904;2024-03-23T02:59:01;7.30;;;4.00;;
22219;SDS011;11279;48.364;10.904;2024-03-23T03:00:02;6.37;;;3.70;;
22219;SDS011;11279;48.364;10.904;2024-03-23T03:01:03;8.32;;;3.58;;
22219;SDS011;11279;48.364;10.904;2024-03-23T03:02:04;7.80;;;3.40;;
22219;SDS011;11279;48.364;10.904;2024-03-23T03:03:05;7.38;;;3.72;;
22219;SDS011;11279;48.364;10.904;2024-03-23T03:04:05;6.23;;;3.53;;
22219;SDS011;11279;48.364;10.904;2024-03-23T03:05:06;5.97;;;3.47;;
22219;SDS011;11279;48.364;10.904;2024-03-23T03:06:06;5.57;;;3.70;;
22219;SDS011;11279;48.364;10.904;2024-03-23T03:07:07;8.33;;;3.77;;
22219;SDS011;11279;48.364;10.904;2024-03-23T03:08:07;7.30;;;3.80;;
22219;SDS011;11279;48.364;10.904;2024-03-23T03:09:07;6.60;;;4.10;;
22219;SDS011;11279;48.364;10.904;2024-03-23T03:10:08;5.80;;;3.90;;
22219;SDS011;11279;48.364;10.904;2024-03-23T03:11:11;6.03;;;3.40;;
22219;SDS011;11279;48.364;10.904;2024-03-23T03:12:11;7.70;;;4.10;;
22219;SDS011;11279;48.364;10.904;2024-03-23T03:13:12;10.27;;;3.80;;
22219;SDS011;11279;48.364;10.904;2024-03-23T03:14:12;6.83;;;3.60;;
22219;SDS011;11279;48.364;10.904;2024-03-23T03:15:12;7.43;;;4.20;;
22219;SDS011;11279;48.364;10.904;2024-03-23T03:16:13;6.50;;;3.57;;
22219;SDS011;11279;48.364;10.904;2024-03-23T03:17:14;8.02;;;4.38;;
22219;SDS011;11279;48.364;10.904;2024-03-23T03:18:15;7.43;;;3.73;;
22219;SDS011;11279;48.364;10.904;2024-03-23T03:19:15;7.63;;;3.70;;
22219;SDS011;11279;48.364;10.904;2024-03-23T03:20:16;6.35;;;4.00;;
22219;SDS011;11279;48.364;10.904;2024-03-23T03:21:17;5.90;;;3.45;;
22219;SDS011;11279;48.364;10.904;2024-03-23T03:22:19;5.57;;;3.33;;
22219;SDS011;11279;48.364;10.904;2024-03-23T03:23:19;5.77;;;3.33;;
22219;SDS011;11279;48.364;10.904;2024-03-23T03:24:20;6.53;;;3.50;;
22219;SDS011;11279;48.364;10.904;2024-03-23T03:25:21;7.37;;;3.70;;
22219;SDS011;11279;48.364;10.904;2024-03-23T03:26:22;7.73;;;4.27;;
22219;SDS011;11279;48.364;10.904;2024-03-23T03:27:22;8.88;;;4.78;;
22219;SDS011;11279;48.364;10.904;2024-03-23T03:28:23;5.70;;;3.97;;
22219;SDS011;11279;48.364;10.904;2024-03-23T03:29:23;8.13;;;4.20;;
22219;SDS011;11279;48.364;10.904;2024-03-23T03:30:24;7.47;;;3.70;;
22219;SDS011;11279;48.364;10.904;2024-03-23T03:31:25;7.40;;;3.93;;
22219;SDS011;11279;48.364;10.904;2024-03-23T03:32:25;7.77;;;4.20;;
22219;SDS011;11279;48.364;10.904;2024-03-23T03:33:26;7.70;;;3.70;;
22219;SDS011;11279;48.364;10.904;2024-03-23T03:34:27;7.43;;;3.60;;
22219;SDS011;11279;48.364;10.904;2024-03-23T03:35:28;7.93;;;4.28;;
22219;SDS011;11279;48.364;10.904;2024-03-23T03:36:30;6.38;;;3.53;;
22219;SDS011;11279;48.364;10.904;2024-03-23T03:37:30;7.53;;;3.77;;
22219;SDS011;11279;48.364;10.904;2024-03-23T03:38:31;6.40;;;3.47;;
22219;SDS011;11279;48.364;10.904;2024-03-23T03:39:31;6.97;;;3.70;;
22219;SDS011;11279;48.364;10.904;2024-03-23T03:40:31;6.17;;;3.50;;
22219;SDS011;11279;48.364;10.904;2024-03-23T03:41:32;7.90;;;4.00;;
22219;SDS011;11279;48.364;10.904;2024-03-23T03:42:32;7.50;;;3.37;;
22219;SDS011;11279;48.364;10.904;2024-03-23T03:43:33;6.07;;;3.70;;
22219;SDS011;11279;48.364;10.904;2024-03-23T03:44:33;5.23;;;3.23;;
22219;SDS011;11279;48.364;10.904;2024-03-23T03:45:34;4.37;;;3.43;;
22219;SDS011;11279;48.364;10.904;2024-03-23T03:46:34;8.07;;;3.47;;
22219;SDS011;11279;48.364;10.904;2024-03-23T03:47:34;5.63;;;3.40;;
22219;SDS011;11279;48.364;10.904;2024-03-23T03:48:35;5.63;;;3.57;;
22219;SDS011;11279;48.364;10.904;2024-03-23T03:49:35;9.13;;;3.37;;
22219;SDS011;11279;48.364;10.904;2024-03-23T03:50:35;6.93;;;3.33;;
22219;SDS011;11279;48.364;10.904;2024-03-23T03:51:36;4.83;;;3.73;;
22219;SDS011;11279;48.364;10.904;2024-03-23T03:52:36;7.00;;;3.47;;
22219;SDS011;11279;48.364;10.904;2024-03-23T03:53:37;6.40;;;3.70;;
22219;SDS011;11279;48.364;10.904;2024-03-23T03:54:37;8.00;;;3.60;;
22219;SDS011;11279;48.364;10.904;2024-03-23T03:55:38;4.77;;;3.20;;
22219;SDS011;11279;48.364;10.904;2024-03-23T03:56:38;5.73;;;3.70;;
22219;SDS011;11279;48.364;10.904;2024-03-23T03:57:38;6.80;;;3.60;;
22219;SDS011;11279;48.364;10.904;2024-03-23T03:58:39;6.33;;;3.03;;
22219;SDS011;11279;48.364;10.904;2024-03-23T03:59:40;4.57;;;3.28;;
22219;SDS011;11279;48.364;10.904;2024-03-23T04:00:40;7.23;;;3.60;;
22219;SDS011;11279;48.364;10.904;2024-03-23T04:01:41;7.37;;;4.07;;
22219;SDS011;11279;48.364;10.904;2024-03-23T04:02:41;5.13;;;3.33;;
22219;SDS011;11279;48.364;10.904;2024-03-23T04:03:42;6.53;;;3.13;;
22219;SDS011;11279;48.364;10.904;2024-03-23T04:04:43;6.50;;;3.58;;
22219;SDS011;11279;48.364;10.904;2024-03-23T04:05:49;5.53;;;3.33;;
22219;SDS011;11279;48.364;10.904;2024-03-23T04:06:57;4.93;;;3.33;;
22219;SDS011;11279;48.364;10.904;2024-03-23T04:08:01;6.00;;;3.35;;
22219;SDS011;11279;48.364;10.904;2024-03-23T04:09:01;8.50;;;4.03;;
22219;SDS011;11279;48.364;10.904;2024-03-23T04:10:02;7.27;;;3.63;;
22219;SDS011;11279;48.364;10.904;2024-03-23T04:11:07;5.05;;;3.40;;
22219;SDS011;11279;48.364;10.904;2024-03-23T04:12:08;7.03;;;3.53;;
22219;SDS011;11279;48.364;10.904;2024-03-23T04:13:09;7.43;;;3.42;;
22219;SDS011;11279;48.364;10.904;2024-03-23T04:14:09;6.30;;;3.63;;
22219;SDS011;11279;48.364;10.904;2024-03-23T04:15:09;6.77;;;3.67;;
22219;SDS011;11279;48.364;10.904;2024-03-23T04:16:10;5.77;;;3.20;;
22219;SDS011;11279;48.364;10.904;2024-03-23T04:17:10;4.97;;;3.43;;
22219;SDS011;11279;48.364;10.904;2024-03-23T04:18:11;6.33;;;3.60;;
22219;SDS011;11279;48.364;10.904;2024-03-23T04:19:11;5.80;;;3.40;;
22219;SDS011;11279;48.364;10.904;2024-03-23T04:20:12;7.33;;;3.47;;
22219;SDS011;11279;48.364;10.904;2024-03-23T04:21:16;7.95;;;3.40;;
22219;SDS011;11279;48.364;10.904;2024-03-23T04:22:17;7.10;;;3.57;;
22219;SDS011;11279;48.364;10.904;2024-03-23T04:23:17;5.67;;;3.07;;
22219;SDS011;11279;48.364;10.904;2024-03-23T04:24:18;4.63;;;3.20;;
22219;SDS011;11279;48.364;10.904;2024-03-23T04:25:21;6.85;;;3.70;;
22219;SDS011;11279;48.364;10.904;2024-03-23T04:26:21;5.30;;;3.60;;
22219;SDS011;11279;48.364;10.904;2024-03-23T04:27:22;6.60;;;3.20;;
22219;SDS011;11279;48.364;10.904;2024-03-23T04:28:22;8.52;;;3.25;;
22219;SDS011;11279;48.364;10.904;2024-03-23T04:29:23;5.60;;;2.93;;
22219;SDS011;11279;48.364;10.904;2024-03-23T04:30:23;7.23;;;3.53;;
22219;SDS011;11279;48.364;10.904;2024-03-23T04:31:25;5.20;;;2.92;;
22219;SDS011;11279;48.364;10.904;2024-03-23T04:32:25;5.90;;;3.70;;
22219;SDS011;11279;48.364;10.904;2024-03-23T04:33:26;7.17;;;3.43;;
22219;SDS011;11279;48.364;10.904;2024-03-23T04:34:27;7.07;;;3.97;;
22219;SDS011;11279;48.364;10.904;2024-03-23T04:35:27;6.77;;;3.37;;
22219;SDS011;11279;48.364;10.904;2024-03-23T04:36:27;7.53;;;3.37;;
22219;SDS011;11279;48.364;10.904;2024-03-23T04:37:28;6.07;;;3.43;;
22219;SDS011;11279;48.364;10.904;2024-03-23T04:38:29;10.50;;;3.47;;
22219;SDS011;11279;48.364;10.904;2024-03-23T04:39:29;8.77;;;3.57;;
22219;SDS011;11279;48.364;10.904;2024-03-23T04:40:29;8.30;;;4.00;;
22219;SDS011;11279;48.364;10.904;2024-03-23T04:41:30;6.97;;;3.60;;
22219;SDS011;11279;48.364;10.904;2024-03-23T04:42:31;7.53;;;3.83;;
22219;SDS011;11279;48.364;10.904;2024-03-23T04:43:31;6.70;;;3.70;;
22219;SDS011;11279;48.364;10.904;2024-03-23T04:44:32;4.73;;;3.20;;
22219;SDS011;11279;48.364;10.904;2024-03-23T04:45:32;5.97;;;3.60;;
22219;SDS011;11279;48.364;10.904;2024-03-23T04:46:32;6.47;;;3.70;;
22219;SDS011;11279;48.364;10.904;2024-03-23T04:47:33;5.23;;;3.47;;
22219;SDS011;11279;48.364;10.904;2024-03-23T04:48:35;5.85;;;3.58;;
22219;SDS011;11279;48.364;10.904;2024-03-23T04:49:36;7.23;;;3.50;;
22219;SDS011;11279;48.364;10.904;2024-03-23T04:50:37;6.60;;;3.70;;
22219;SDS011;11279;48.364;10.904;2024-03-23T04:51:37;11.97;;;3.90;;
22219;SDS011;11279;48.364;10.904;2024-03-23T04:52:37;6.90;;;3.97;;
22219;SDS011;11279;48.364;10.904;2024-03-23T04:53:38;5.87;;;3.40;;
22219;SDS011;11279;48.364;10.904;2024-03-23T04:54:38;5.37;;;3.63;;
22219;SDS011;11279;48.364;10.904;2024-03-23T04:55:40;5.07;;;3.50;;
22219;SDS011;11279;48.364;10.904;2024-03-23T04:56:41;9.10;;;3.63;;
22219;SDS011;11279;48.364;10.904;2024-03-23T04:57:42;5.85;;;3.38;;
22219;SDS011;11279;48.364;10.904;2024-03-23T04:58:42;7.37;;;3.20;;
22219;SDS011;11279;48.364;10.904;2024-03-23T04:59:43;5.75;;;3.30;;
22219;SDS011;11279;48.364;10.904;2024-03-23T05:00:44;5.20;;;3.37;;
22219;SDS011;11279;48.364;10.904;2024-03-23T05:01:45;7.13;;;3.43;;
22219;SDS011;11279;48.364;10.904;2024-03-23T05:02:45;4.83;;;3.00;;
22219;SDS011;11279;48.364;10.904;2024-03-23T05:03:45;5.60;;;3.37;;
22219;SDS011;11279;48.364;10.904;2024-03-23T05:04:46;4.13;;;3.17;;
22219;SDS011;11279;48.364;10.904;2024-03-23T05:05:47;3.93;;;2.83;;
22219;SDS011;11279;48.364;10.904;2024-03-23T05:06:48;6.95;;;2.92;;
22219;SDS011;11279;48.364;10.904;2024-03-23T05:07:49;6.10;;;2.97;;
22219;SDS011;11279;48.364;10.904;2024-03-23T05:08:49;4.70;;;2.83;;
22219;SDS011;11279;48.364;10.904;2024-03-23T05:09:49;9.20;;;4.20;;
22219;SDS011;11279;48.364;10.904;2024-03-23T05:10:50;6.60;;;3.33;;
22219;SDS011;11279;48.364;10.904;2024-03-23T05:11:50;5.67;;;2.70;;
22219;SDS011;11279;48.364;10.904;2024-03-23T05:12:51;4.30;;;2.30;;
22219;SDS011;11279;48.364;10.904;2024-03-23T05:13:51;7.23;;;2.63;;
22219;SDS011;11279;48.364;10.904;2024-03-23T05:14:52;4.77;;;2.40;;
22219;SDS011;11279;48.364;10.904;2024-03-23T05:15:53;5.80;;;2.40;;
22219;SDS011;11279;48.364;10.904;2024-03-23T05:16:54;7.60;;;2.78;;
22219;SDS011;11279;48.364;10.904;2024-03-23T05:17:55;6.15;;;2.85;;
22219;SDS011;11279;48.364;10.904;2024-03-23T05:18:56;7.87;;;3.10;;
22219;SDS011;11279;48.364;10.904;2024-03-23T05:19:56;6.83;;;2.90;;
22219;SDS011;11279;48.364;10.904;2024-03-23T05:20:57;5.50;;;2.40;;
22219;SDS011;11279;48.364;10.904;2024-03-23T05:21:58;4.88;;;2.72;;
22219;SDS011;11279;48.364;10.904;2024-03-23T05:22:59;4.78;;;2.70;;
22219;SDS011;11279;48.364;10.904;2024-03-23T05:24:00;4.67;;;2.60;;
22219;SDS011;11279;48.364;10.904;2024-03-23T05:25:00;7.07;;;2.73;;
22219;SDS011;11279;48.364;10.904;2024-03-23T05:26:01;2.83;;;2.20;;
22219;SDS011;11279;48.364;10.904;2024-03-23T05:27:01;4.77;;;2.70;;
22219;SDS011;11279;48.364;10.904;2024-03-23T05:28:02;3.87;;;2.80;;
22219;SDS011;11279;48.364;10.904;2024-03-23T05:29:02;4.53;;;2.67;;
22219;SDS011;11279;48.364;10.904;2024-03-23T05:30:03;6.60;;;2.87;;
22219;SDS011;11279;48.364;10.904;2024-03-23T05:31:05;6.53;;;3.17;;
22219;SDS011;11279;48.364;10.904;2024-03-23T05:32:06;7.40;;;3.03;;
22219;SDS011;11279;48.364;10.904;2024-03-23T05:33:07;9.37;;;3.30;;
22219;SDS011;11279;48.364;10.904;2024-03-23T05:34:08;5.57;;;2.63;;
22219;SDS011;11279;48.364;10.904;2024-03-23T05:35:09;4.38;;;2.95;;
22219;SDS011;11279;48.364;10.904;2024-03-23T05:36:14;6.47;;;3.10;;
22219;SDS011;11279;48.364;10.904;2024-03-23T05:37:17;4.57;;;2.95;;
22219;SDS011;11279;48.364;10.904;2024-03-23T05:38:18;4.57;;;2.60;;
22219;SDS011;11279;48.364;10.904;2024-03-23T05:39:18;6.57;;;3.40;;
22219;SDS011;11279;48.364;10.904;2024-03-23T05:40:22;8.73;;;2.90;;
22219;SDS011;11279;48.364;10.904;2024-03-23T05:41:25;5.60;;;3.10;;
22219;SDS011;11279;48.364;10.904;2024-03-23T05:42:25;9.07;;;3.05;;
22219;SDS011;11279;48.364;10.904;2024-03-23T05:43:29;6.38;;;2.78;;
22219;SDS011;11279;48.364;10.904;2024-03-23T05:44:33;8.23;;;3.35;;
22219;SDS011;11279;48.364;10.904;2024-03-23T05:45:34;5.90;;;3.38;;
22219;SDS011;11279;48.364;10.904;2024-03-23T05:46:34;7.33;;;3.73;;
22219;SDS011;11279;48.364;10.904;2024-03-23T05:47:34;6.70;;;2.93;;
22219;SDS011;11279;48.364;10.904;2024-03-23T05:48:35;10.20;;;3.70;;
22219;SDS011;11279;48.364;10.904;2024-03-23T05:49:37;5.45;;;3.05;;
22219;SDS011;11279;48.364;10.904;2024-03-23T05:50:37;6.50;;;2.90;;
22219;SDS011;11279;48.364;10.904;2024-03-23T05:51:39;5.90;;;2.90;;
22219;SDS011;11279;48.364;10.904;2024-03-23T05:52:39;6.87;;;2.80;;
22219;SDS011;11279;48.364;10.904;2024-03-23T05:53:39;5.57;;;2.80;;
22219;SDS011;11279;48.364;10.904;2024-03-23T05:54:40;4.27;;;2.77;;
22219;SDS011;11279;48.364;10.904;2024-03-23T05:55:40;5.53;;;2.83;;
22219;SDS011;11279;48.364;10.904;2024-03-23T05:56:41;5.23;;;2.73;;
22219;SDS011;11279;48.364;10.904;2024-03-23T05:57:44;8.00;;;3.15;;
22219;SDS011;11279;48.364;10.904;2024-03-23T05:58:45;8.20;;;2.92;;
22219;SDS011;11279;48.364;10.904;2024-03-23T05:59:46;6.50;;;2.67;;
22219;SDS011;11279;48.364;10.904;2024-03-23T06:00:47;6.47;;;3.00;;
22219;SDS011;11279;48.364;10.904;2024-03-23T06:01:47;5.47;;;3.10;;
22219;SDS011;11279;48.364;10.904;2024-03-23T06:02:48;4.60;;;2.77;;
22219;SDS011;11279;48.364;10.904;2024-03-23T06:03:54;5.40;;;2.60;;
22219;SDS011;11279;48.364;10.904;2024-03-23T06:04:55;5.60;;;2.90;;
22219;SDS011;11279;48.364;10.904;2024-03-23T06:05:55;7.10;;;2.60;;
22219;SDS011;11279;48.364;10.904;2024-03-23T06:06:56;8.03;;;3.07;;
22219;SDS011;11279;48.364;10.904;2024-03-23T06:07:57;4.72;;;2.42;;
22219;SDS011;11279;48.364;10.904;2024-03-23T06:08:58;3.90;;;2.43;;
22219;SDS011;11279;48.364;10.904;2024-03-23T06:09:59;3.87;;;2.40;;
22219;SDS011;11279;48.364;10.904;2024-03-23T06:10:59;6.30;;;3.07;;
22219;SDS011;11279;48.364;10.904;2024-03-23T06:11:59;5.17;;;2.33;;
22219;SDS011;11279;48.364;10.904;2024-03-23T06:13:03;5.93;;;2.80;;
22219;SDS011;11279;48.364;10.904;2024-03-23T06:14:03;5.93;;;2.70;;
22219;SDS011;11279;48.364;10.904;2024-03-23T06:15:04;6.37;;;2.53;;
22219;SDS011;11279;48.364;10.904;2024-03-23T06:16:05;5.95;;;2.60;;
22219;SDS011;11279;48.364;10.904;2024-03-23T06:17:10;6.88;;;3.03;;
22219;SDS011;11279;48.364;10.904;2024-03-23T06:18:10;4.50;;;2.53;;
22219;SDS011;11279;48.364;10.904;2024-03-23T06:19:11;6.22;;;2.40;;
22219;SDS011;11279;48.364;10.904;2024-03-23T06:20:12;4.87;;;2.50;;
22219;SDS011;11279;48.364;10.904;2024-03-23T06:21:13;3.80;;;2.27;;
22219;SDS011;11279;48.364;10.904;2024-03-23T06:22:14;5.13;;;2.50;;
22219;SDS011;11279;48.364;10.904;2024-03-23T06:23:14;3.73;;;2.37;;
22219;SDS011;11279;48.364;10.904;2024-03-23T06:24:15;6.85;;;2.45;;
22219;SDS011;11279;48.364;10.904;2024-03-23T06:25:16;3.50;;;2.57;;
22219;SDS011;11279;48.364;10.904;2024-03-23T06:26:17;3.47;;;2.10;;
22219;SDS011;11279;48.364;10.904;2024-03-23T06:27:18;7.72;;;2.50;;
22219;SDS011;11279;48.364;10.904;2024-03-23T06:28:19;5.90;;;2.67;;
22219;SDS011;11279;48.364;10.904;2024-03-23T06:29:21;6.03;;;2.58;;
22219;SDS011;11279;48.364;10.904;2024-03-23T06:30:21;5.07;;;2.70;;
22219;SDS011;11279;48.364;10.904;2024-03-23T06:31:22;4.53;;;2.30;;
22219;SDS011;11279;48.364;10.904;2024-03-23T06:32:22;3.80;;;2.53;;
22219;SDS011;11279;48.364;10.904;2024-03-23T06:33:22;5.47;;;2.50;;
22219;SDS011;11279;48.364;10.904;2024-03-23T06:34:24;6.80;;;2.47;;
22219;SDS011;11279;48.364;10.904;2024-03-23T06:35:24;6.80;;;2.53;;
22219;SDS011;11279;48.364;10.904;2024-03-23T06:36:25;3.80;;;2.33;;
22219;SDS011;11279;48.364;10.904;2024-03-23T06:37:25;4.83;;;2.23;;
22219;SDS011;11279;48.364;10.904;2024-03-23T06:38:26;5.03;;;2.70;;
22219;SDS011;11279;48.364;10.904;2024-03-23T06:39:26;4.30;;;2.40;;
22219;SDS011;11279;48.364;10.904;2024-03-23T06:40:26;6.40;;;2.57;;
22219;SDS011;11279;48.364;10.904;2024-03-23T06:41:27;4.47;;;2.10;;
22219;SDS011;11279;48.364;10.904;2024-03-23T06:42:27;5.03;;;2.43;;
22219;SDS011;11279;48.364;10.904;2024-03-23T06:43:28;4.97;;;2.50;;
22219;SDS011;11279;48.364;10.904;2024-03-23T06:44:28;8.30;;;2.30;;
22219;SDS011;11279;48.364;10.904;2024-03-23T06:45:29;4.93;;;2.50;;
22219;SDS011;11279;48.364;10.904;2024-03-23T06:46:29;4.57;;;2.37;;
22219;SDS011;11279;48.364;10.904;2024-03-23T06:47:32;3.03;;;1.93;;
22219;SDS011;11279;48.364;10.904;2024-03-23T06:48:33;3.92;;;2.00;;
22219;SDS011;11279;48.364;10.904;2024-03-23T06:49:33;6.43;;;2.20;;
22219;SDS011;11279;48.364;10.904;2024-03-23T06:50:34;6.20;;;2.43;;
22219;SDS011;11279;48.364;10.904;2024-03-23T06:51:34;6.47;;;2.30;;
22219;SDS011;11279;48.364;10.904;2024-03-23T06:52:34;4.60;;;2.47;;
22219;SDS011;11279;48.364;10.904;2024-03-23T06:53:35;6.80;;;2.73;;